Epic Capri — 9HA2845 — position and weather

sailwx.info

Track history (hours):
 
Tides and Currents Weather Stations Pressure Air Temp Water Temp Dewpoint Dewpoint Depression Visibility Wind Speed Wind Dir Waves Ship Positions

Epic Capri

Last reported at 2015-Sep-02 01:32 UTC. Time now 2015-Sep-02 02:32 UTC.
Position N 37°44' W 025°40'.

Length 99 m; draft 5.4 m.

Type: Tanker. MMSI: 256325000.

Date/timePositionNaut miles runAvg speedWind from/ knotsBaromVisibWave heightAir tempDewpointWater temp
2015-Sep-02 01:32N 37°44' W 025°40'0 0.0
2015-Sep-02 00:32N 37°44' W 025°40'0 0.0
2015-Sep-01 23:32N 37°44' W 025°40'0 0.0
2015-Sep-01 22:32N 37°44' W 025°40'0 0.0
2015-Sep-01 21:32N 37°44' W 025°40'0 0.0
2015-Sep-01 20:32N 37°44' W 025°40'0 0.0
2015-Sep-01 19:32N 37°44' W 025°40'0 0.0
2015-Sep-01 18:32N 37°44' W 025°40'0 0.0
2015-Sep-01 17:32N 37°44' W 025°40'0 0.0
2015-Sep-01 16:32N 37°44' W 025°40'0 0.0
2015-Sep-01 15:32N 37°44' W 025°40'0 0.0
2015-Sep-01 14:32N 37°44' W 025°40'0 0.0
2015-Sep-01 13:34N 37°44' W 025°40'2 1.7
2015-Sep-01 12:34N 37°44' W 025°38'7 7.1
2015-Sep-01 11:33N 37°40' W 025°30'9 8.9
2015-Sep-01 10:33N 37°40' W 025°19'9 9.4
2015-Sep-01 09:33N 37°40' W 025°07'10 9.7
2015-Sep-01 08:34N 37°40' W 024°55'9 9.4
2015-Sep-01 07:33N 37°41' W 024°43'10 9.6
2015-Sep-01 06:33N 37°41' W 024°31'9 9.5
2015-Sep-01 05:33N 37°41' W 024°19'1010.0
2015-Sep-01 04:33N 37°41' W 024°06'10 9.7
2015-Sep-01 03:33N 37°41' W 023°54'1110.2
2015-Sep-01 02:32N 37°41' W 023°41'  
2015-Aug-29 11:19N 37°51' W 011°59'15 8.3
2015-Aug-29 09:27N 37°51' W 011°39'26 9.0
2015-Aug-29 06:33N 37°51' W 011°06'10 9.4
2015-Aug-29 05:28N 37°52' W 010°53'10 9.2
2015-Aug-29 04:25N 37°52' W 010°41'8 9.3
2015-Aug-29 03:33N 37°52' W 010°30'10 9.2
2015-Aug-29 02:30N 37°52' W 010°18'9 8.9
2015-Aug-29 01:33N 37°52' W 010°08'8 8.5
2015-Aug-29 00:33N 37°53' W 009°57'8 8.1
2015-Aug-28 23:33N 37°53' W 009°47'8 7.9
2015-Aug-28 22:33N 37°52' W 009°37'7 7.5
2015-Aug-28 21:33N 37°53' W 009°27'7 7.4
2015-Aug-28 20:34N 37°53' W 009°18'7 7.2
2015-Aug-28 19:33N 37°53' W 009°09'8 7.8
2015-Aug-28 18:33N 37°53' W 008°59'6 5.9
2015-Aug-28 17:33N 37°57' W 008°53'0 0.1
2015-Aug-28 16:33N 37°57' W 008°53'0 0.0
2015-Aug-28 15:33N 37°57' W 008°53'0 0.0
2015-Aug-28 14:33N 37°57' W 008°53'0 0.0
2015-Aug-28 13:33N 37°57' W 008°53'0 0.0
2015-Aug-28 12:33N 37°57' W 008°53'0 0.0
2015-Aug-28 11:33N 37°57' W 008°53'0 0.0
2015-Aug-28 10:33N 37°57' W 008°53'0 0.0
2015-Aug-28 09:33N 37°57' W 008°53'0 0.0
2015-Aug-28 08:33N 37°57' W 008°53'0 0.0
2015-Aug-28 07:33N 37°57' W 008°53'0 0.0
2015-Aug-28 06:33N 37°57' W 008°53'0 0.0
2015-Aug-28 05:33N 37°57' W 008°53'0 0.0
2015-Aug-28 04:33N 37°57' W 008°53'0 0.0
2015-Aug-28 03:33N 37°57' W 008°53'0 0.0
2015-Aug-28 02:33N 37°57' W 008°53'0 0.0
2015-Aug-28 01:33N 37°57' W 008°53'0 0.0
2015-Aug-28 00:33N 37°57' W 008°53'0 0.0
2015-Aug-27 23:33N 37°57' W 008°53'0 0.3
2015-Aug-27 22:33N 37°57' W 008°53'2 1.9
2015-Aug-27 21:31N 37°55' W 008°52'0 0.0
2015-Aug-27 20:31N 37°55' W 008°52'0 0.0
2015-Aug-27 19:31N 37°55' W 008°52'0 0.0
2015-Aug-27 18:28N 37°55' W 008°52'0 0.0
2015-Aug-27 17:31N 37°55' W 008°52'0 0.0
2015-Aug-27 16:31N 37°55' W 008°52'0 0.0
2015-Aug-27 15:31N 37°55' W 008°52'0 0.0
2015-Aug-27 14:31N 37°55' W 008°52'0 0.0
2015-Aug-27 13:31N 37°55' W 008°52'0 0.0
2015-Aug-27 12:31N 37°55' W 008°52'0 0.0
2015-Aug-27 11:31N 37°55' W 008°52'0 0.0
2015-Aug-27 10:31N 37°55' W 008°52'0 0.0
2015-Aug-27 09:31N 37°55' W 008°52'0 0.0
2015-Aug-27 08:31N 37°55' W 008°52'0 0.0
2015-Aug-27 07:31N 37°55' W 008°52'0 0.0
2015-Aug-27 06:31N 37°55' W 008°52'0 0.0
2015-Aug-27 05:31N 37°55' W 008°52'0 0.0
2015-Aug-27 04:31N 37°55' W 008°52'0 0.0
2015-Aug-27 03:31N 37°55' W 008°52'0 0.1
2015-Aug-27 02:31N 37°55' W 008°52'0 0.0
2015-Aug-27 01:31N 37°55' W 008°52'0 0.1
2015-Aug-27 00:31N 37°55' W 008°52'0 0.0
2015-Aug-26 23:31N 37°55' W 008°52'0 0.0
2015-Aug-26 22:31N 37°55' W 008°52'5 5.7
2015-Aug-26 21:33N 37°52' W 008°58'9 9.1
2015-Aug-26 20:33N 37°46' W 009°07'9 8.8
2015-Aug-26 19:33N 37°40' W 009°15'9 8.6
2015-Aug-26 18:33N 37°35' W 009°23'9 8.8
2015-Aug-26 17:33N 37°29' W 009°32'9 8.8
2015-Aug-26 16:33N 37°24' W 009°41'  
Track history (hours):
 
Tides and Currents Weather Stations Pressure Air Temp Water Temp Dewpoint Dewpoint Depression Visibility Wind Speed Wind Dir Waves Ship Positions

Epic Capri

Last reported at 2015-Sep-02 01:32 UTC. Time now 2015-Sep-02 02:32 UTC.
Position N 37°44' W 025°40'.

Length 99 m; draft 5.4 m.

Type: Tanker. MMSI: 256325000.

Date/timePositionNaut miles runAvg speedWind from/ knotsBaromVisibWave heightAir tempDewpointWater temp
2015-Sep-02 01:32N 37°44' W 025°40'0 0.0
2015-Sep-02 00:32N 37°44' W 025°40'0 0.0
2015-Sep-01 23:32N 37°44' W 025°40'0 0.0
2015-Sep-01 22:32N 37°44' W 025°40'0 0.0
2015-Sep-01 21:32N 37°44' W 025°40'0 0.0
2015-Sep-01 20:32N 37°44' W 025°40'0 0.0
2015-Sep-01 19:32N 37°44' W 025°40'0 0.0
2015-Sep-01 18:32N 37°44' W 025°40'0 0.0
2015-Sep-01 17:32N 37°44' W 025°40'0 0.0
2015-Sep-01 16:32N 37°44' W 025°40'0 0.0
2015-Sep-01 15:32N 37°44' W 025°40'0 0.0
2015-Sep-01 14:32N 37°44' W 025°40'0 0.0
2015-Sep-01 13:34N 37°44' W 025°40'2 1.7
2015-Sep-01 12:34N 37°44' W 025°38'7 7.1
2015-Sep-01 11:33N 37°40' W 025°30'9 8.9
2015-Sep-01 10:33N 37°40' W 025°19'9 9.4
2015-Sep-01 09:33N 37°40' W 025°07'10 9.7
2015-Sep-01 08:34N 37°40' W 024°55'9 9.4
2015-Sep-01 07:33N 37°41' W 024°43'10 9.6
2015-Sep-01 06:33N 37°41' W 024°31'9 9.5
2015-Sep-01 05:33N 37°41' W 024°19'1010.0
2015-Sep-01 04:33N 37°41' W 024°06'10 9.7
2015-Sep-01 03:33N 37°41' W 023°54'1110.2
2015-Sep-01 02:32N 37°41' W 023°41'  
2015-Aug-29 11:19N 37°51' W 011°59'15 8.3
2015-Aug-29 09:27N 37°51' W 011°39'26 9.0
2015-Aug-29 06:33N 37°51' W 011°06'10 9.4
2015-Aug-29 05:28N 37°52' W 010°53'10 9.2
2015-Aug-29 04:25N 37°52' W 010°41'8 9.3
2015-Aug-29 03:33N 37°52' W 010°30'10 9.2
2015-Aug-29 02:30N 37°52' W 010°18'9 8.9
2015-Aug-29 01:33N 37°52' W 010°08'8 8.5
2015-Aug-29 00:33N 37°53' W 009°57'8 8.1
2015-Aug-28 23:33N 37°53' W 009°47'8 7.9
2015-Aug-28 22:33N 37°52' W 009°37'7 7.5
2015-Aug-28 21:33N 37°53' W 009°27'7 7.4
2015-Aug-28 20:34N 37°53' W 009°18'7 7.2
2015-Aug-28 19:33N 37°53' W 009°09'8 7.8
2015-Aug-28 18:33N 37°53' W 008°59'6 5.9
2015-Aug-28 17:33N 37°57' W 008°53'0 0.1
2015-Aug-28 16:33N 37°57' W 008°53'0 0.0
2015-Aug-28 15:33N 37°57' W 008°53'0 0.0
2015-Aug-28 14:33N 37°57' W 008°53'0 0.0
2015-Aug-28 13:33N 37°57' W 008°53'0 0.0
2015-Aug-28 12:33N 37°57' W 008°53'0 0.0
2015-Aug-28 11:33N 37°57' W 008°53'0 0.0
2015-Aug-28 10:33N 37°57' W 008°53'0 0.0
2015-Aug-28 09:33N 37°57' W 008°53'0 0.0
2015-Aug-28 08:33N 37°57' W 008°53'0 0.0
2015-Aug-28 07:33N 37°57' W 008°53'0 0.0
2015-Aug-28 06:33N 37°57' W 008°53'0 0.0
2015-Aug-28 05:33N 37°57' W 008°53'0 0.0
2015-Aug-28 04:33N 37°57' W 008°53'0 0.0
2015-Aug-28 03:33N 37°57' W 008°53'0 0.0
2015-Aug-28 02:33N 37°57' W 008°53'0 0.0
2015-Aug-28 01:33N 37°57' W 008°53'0 0.0
2015-Aug-28 00:33N 37°57' W 008°53'0 0.0
2015-Aug-27 23:33N 37°57' W 008°53'0 0.3
2015-Aug-27 22:33N 37°57' W 008°53'2 1.9
2015-Aug-27 21:31N 37°55' W 008°52'0 0.0
2015-Aug-27 20:31N 37°55' W 008°52'0 0.0
2015-Aug-27 19:31N 37°55' W 008°52'0 0.0
2015-Aug-27 18:28N 37°55' W 008°52'0 0.0
2015-Aug-27 17:31N 37°55' W 008°52'0 0.0
2015-Aug-27 16:31N 37°55' W 008°52'0 0.0
2015-Aug-27 15:31N 37°55' W 008°52'0 0.0
2015-Aug-27 14:31N 37°55' W 008°52'0 0.0
2015-Aug-27 13:31N 37°55' W 008°52'0 0.0
2015-Aug-27 12:31N 37°55' W 008°52'0 0.0
2015-Aug-27 11:31N 37°55' W 008°52'0 0.0
2015-Aug-27 10:31N 37°55' W 008°52'0 0.0
2015-Aug-27 09:31N 37°55' W 008°52'0 0.0
2015-Aug-27 08:31N 37°55' W 008°52'0 0.0
2015-Aug-27 07:31N 37°55' W 008°52'0 0.0
2015-Aug-27 06:31N 37°55' W 008°52'0 0.0
2015-Aug-27 05:31N 37°55' W 008°52'0 0.0
2015-Aug-27 04:31N 37°55' W 008°52'0 0.0
2015-Aug-27 03:31N 37°55' W 008°52'0 0.1
2015-Aug-27 02:31N 37°55' W 008°52'0 0.0
2015-Aug-27 01:31N 37°55' W 008°52'0 0.1
2015-Aug-27 00:31N 37°55' W 008°52'0 0.0
2015-Aug-26 23:31N 37°55' W 008°52'0 0.0
2015-Aug-26 22:31N 37°55' W 008°52'5 5.7
2015-Aug-26 21:33N 37°52' W 008°58'9 9.1
2015-Aug-26 20:33N 37°46' W 009°07'9 8.8
2015-Aug-26 19:33N 37°40' W 009°15'9 8.6
2015-Aug-26 18:33N 37°35' W 009°23'9 8.8
2015-Aug-26 17:33N 37°29' W 009°32'9 8.8
2015-Aug-26 16:33N 37°24' W 009°41'  

Dump ship's entire track history